sensor_id;sensor_type;location;lat;lon;timestamp;P1;durP1;ratioP1;P2;durP2;ratioP2
43154;SDS011;34212;51.018;13.586;2024-01-07T00:00:20;25.38;;;15.38;;
43154;SDS011;34212;51.018;13.586;2024-01-07T00:05:21;24.02;;;15.05;;
43154;SDS011;34212;51.018;13.586;2024-01-07T00:10:23;25.73;;;15.48;;
43154;SDS011;34212;51.018;13.586;2024-01-07T00:15:25;26.52;;;15.30;;
43154;SDS011;34212;51.018;13.586;2024-01-07T00:20:28;24.98;;;16.33;;
43154;SDS011;34212;51.018;13.586;2024-01-07T00:25:29;26.77;;;15.95;;
43154;SDS011;34212;51.018;13.586;2024-01-07T00:30:31;29.63;;;16.20;;
43154;SDS011;34212;51.018;13.586;2024-01-07T00:35:34;27.30;;;15.43;;
43154;SDS011;34212;51.018;13.586;2024-01-07T00:40:35;27.05;;;15.02;;
43154;SDS011;34212;51.018;13.586;2024-01-07T00:45:37;25.00;;;14.85;;
43154;SDS011;34212;51.018;13.586;2024-01-07T00:50:38;26.33;;;15.00;;
43154;SDS011;34212;51.018;13.586;2024-01-07T00:55:40;23.73;;;14.65;;
43154;SDS011;34212;51.018;13.586;2024-01-07T01:00:42;26.25;;;16.17;;
43154;SDS011;34212;51.018;13.586;2024-01-07T01:05:44;26.05;;;16.77;;
43154;SDS011;34212;51.018;13.586;2024-01-07T01:10:45;24.63;;;14.73;;
43154;SDS011;34212;51.018;13.586;2024-01-07T01:15:47;26.65;;;15.88;;
43154;SDS011;34212;51.018;13.586;2024-01-07T01:20:48;23.65;;;14.60;;
43154;SDS011;34212;51.018;13.586;2024-01-07T01:25:50;24.85;;;15.02;;
43154;SDS011;34212;51.018;13.586;2024-01-07T01:30:52;26.35;;;13.55;;
43154;SDS011;34212;51.018;13.586;2024-01-07T01:35:54;26.23;;;14.65;;
43154;SDS011;34212;51.018;13.586;2024-01-07T01:40:55;28.55;;;15.60;;
43154;SDS011;34212;51.018;13.586;2024-01-07T01:45:58;26.80;;;14.70;;
43154;SDS011;34212;51.018;13.586;2024-01-07T01:51:00;26.42;;;14.55;;
43154;SDS011;34212;51.018;13.586;2024-01-07T01:56:03;22.95;;;14.35;;
43154;SDS011;34212;51.018;13.586;2024-01-07T02:01:06;22.25;;;14.18;;
43154;SDS011;34212;51.018;13.586;2024-01-07T02:06:08;25.13;;;14.25;;
43154;SDS011;34212;51.018;13.586;2024-01-07T02:11:16;24.48;;;14.07;;
43154;SDS011;34212;51.018;13.586;2024-01-07T02:16:19;24.55;;;14.43;;
43154;SDS011;34212;51.018;13.586;2024-01-07T02:21:20;22.50;;;13.68;;
43154;SDS011;34212;51.018;13.586;2024-01-07T02:26:22;27.73;;;14.18;;
43154;SDS011;34212;51.018;13.586;2024-01-07T02:31:23;21.17;;;14.23;;
43154;SDS011;34212;51.018;13.586;2024-01-07T02:36:25;26.08;;;13.82;;
43154;SDS011;34212;51.018;13.586;2024-01-07T02:41:27;24.60;;;13.57;;
43154;SDS011;34212;51.018;13.586;2024-01-07T02:46:29;22.63;;;13.68;;
43154;SDS011;34212;51.018;13.586;2024-01-07T02:56:33;21.35;;;12.10;;
43154;SDS011;34212;51.018;13.586;2024-01-07T03:01:35;21.27;;;12.95;;
43154;SDS011;34212;51.018;13.586;2024-01-07T03:06:41;23.67;;;12.77;;
43154;SDS011;34212;51.018;13.586;2024-01-07T03:11:43;18.65;;;11.73;;
43154;SDS011;34212;51.018;13.586;2024-01-07T03:16:44;20.95;;;12.00;;
43154;SDS011;34212;51.018;13.586;2024-01-07T03:21:46;23.45;;;12.15;;
43154;SDS011;34212;51.018;13.586;2024-01-07T03:26:49;22.10;;;12.30;;
43154;SDS011;34212;51.018;13.586;2024-01-07T03:31:51;24.98;;;12.38;;
43154;SDS011;34212;51.018;13.586;2024-01-07T03:36:54;20.98;;;11.52;;
43154;SDS011;34212;51.018;13.586;2024-01-07T03:41:55;25.25;;;11.70;;
43154;SDS011;34212;51.018;13.586;2024-01-07T03:46:57;20.10;;;11.32;;
43154;SDS011;34212;51.018;13.586;2024-01-07T03:51:59;18.50;;;11.27;;
43154;SDS011;34212;51.018;13.586;2024-01-07T03:57:00;20.98;;;11.48;;
43154;SDS011;34212;51.018;13.586;2024-01-07T04:02:02;21.35;;;12.60;;
43154;SDS011;34212;51.018;13.586;2024-01-07T04:07:04;19.10;;;11.70;;
43154;SDS011;34212;51.018;13.586;2024-01-07T04:12:06;20.20;;;11.50;;
43154;SDS011;34212;51.018;13.586;2024-01-07T04:17:07;20.60;;;11.05;;
43154;SDS011;34212;51.018;13.586;2024-01-07T04:22:09;18.23;;;11.27;;
43154;SDS011;34212;51.018;13.586;2024-01-07T04:27:11;19.88;;;11.48;;
43154;SDS011;34212;51.018;13.586;2024-01-07T04:32:12;19.67;;;11.85;;
43154;SDS011;34212;51.018;13.586;2024-01-07T04:37:14;19.00;;;10.77;;
43154;SDS011;34212;51.018;13.586;2024-01-07T04:42:16;19.52;;;12.00;;
43154;SDS011;34212;51.018;13.586;2024-01-07T04:52:33;17.90;;;10.43;;
43154;SDS011;34212;51.018;13.586;2024-01-07T04:57:34;19.90;;;11.57;;
43154;SDS011;34212;51.018;13.586;2024-01-07T05:02:36;17.48;;;11.32;;
43154;SDS011;34212;51.018;13.586;2024-01-07T05:07:38;20.07;;;9.63;;
43154;SDS011;34212;51.018;13.586;2024-01-07T05:12:40;19.13;;;10.70;;
43154;SDS011;34212;51.018;13.586;2024-01-07T05:17:42;18.80;;;10.43;;
43154;SDS011;34212;51.018;13.586;2024-01-07T05:22:44;15.88;;;10.32;;
43154;SDS011;34212;51.018;13.586;2024-01-07T05:27:45;16.77;;;9.88;;
43154;SDS011;34212;51.018;13.586;2024-01-07T05:32:47;15.73;;;9.75;;
43154;SDS011;34212;51.018;13.586;2024-01-07T05:37:49;15.43;;;9.60;;
43154;SDS011;34212;51.018;13.586;2024-01-07T05:42:50;18.73;;;9.75;;
43154;SDS011;34212;51.018;13.586;2024-01-07T05:47:52;15.88;;;8.90;;
43154;SDS011;34212;51.018;13.586;2024-01-07T05:52:54;15.30;;;8.88;;
43154;SDS011;34212;51.018;13.586;2024-01-07T05:57:55;14.13;;;8.20;;
43154;SDS011;34212;51.018;13.586;2024-01-07T06:02:57;16.48;;;8.70;;
43154;SDS011;34212;51.018;13.586;2024-01-07T06:08:00;18.17;;;8.40;;
43154;SDS011;34212;51.018;13.586;2024-01-07T06:13:01;12.40;;;7.57;;
43154;SDS011;34212;51.018;13.586;2024-01-07T06:18:04;9.95;;;6.93;;
43154;SDS011;34212;51.018;13.586;2024-01-07T06:23:06;13.95;;;6.90;;
43154;SDS011;34212;51.018;13.586;2024-01-07T06:28:08;11.43;;;6.85;;
43154;SDS011;34212;51.018;13.586;2024-01-07T06:33:11;18.08;;;8.55;;
43154;SDS011;34212;51.018;13.586;2024-01-07T06:38:14;10.05;;;6.43;;
43154;SDS011;34212;51.018;13.586;2024-01-07T06:43:16;10.55;;;6.35;;
43154;SDS011;34212;51.018;13.586;2024-01-07T06:48:42;14.88;;;7.35;;
43154;SDS011;34212;51.018;13.586;2024-01-07T06:53:49;11.32;;;7.60;;
43154;SDS011;34212;51.018;13.586;2024-01-07T06:58:51;9.75;;;5.93;;
43154;SDS011;34212;51.018;13.586;2024-01-07T07:03:53;10.63;;;6.50;;
43154;SDS011;34212;51.018;13.586;2024-01-07T07:08:55;10.20;;;6.43;;
43154;SDS011;34212;51.018;13.586;2024-01-07T07:13:56;8.75;;;5.40;;
43154;SDS011;34212;51.018;13.586;2024-01-07T07:18:58;9.20;;;5.47;;
43154;SDS011;34212;51.018;13.586;2024-01-07T07:23:59;7.57;;;4.93;;
43154;SDS011;34212;51.018;13.586;2024-01-07T07:29:01;8.07;;;4.88;;
43154;SDS011;34212;51.018;13.586;2024-01-07T07:34:03;8.30;;;4.55;;
43154;SDS011;34212;51.018;13.586;2024-01-07T07:39:05;8.43;;;5.53;;
43154;SDS011;34212;51.018;13.586;2024-01-07T07:44:07;6.60;;;4.38;;
43154;SDS011;34212;51.018;13.586;2024-01-07T07:49:09;7.63;;;5.22;;
43154;SDS011;34212;51.018;13.586;2024-01-07T07:54:10;7.75;;;4.60;;
43154;SDS011;34212;51.018;13.586;2024-01-07T07:59:12;7.18;;;4.72;;
43154;SDS011;34212;51.018;13.586;2024-01-07T08:04:14;6.40;;;4.60;;
43154;SDS011;34212;51.018;13.586;2024-01-07T08:09:15;6.97;;;4.28;;
43154;SDS011;34212;51.018;13.586;2024-01-07T08:14:17;7.10;;;4.00;;
43154;SDS011;34212;51.018;13.586;2024-01-07T08:19:18;6.93;;;4.60;;
43154;SDS011;34212;51.018;13.586;2024-01-07T08:24:21;7.77;;;5.17;;
43154;SDS011;34212;51.018;13.586;2024-01-07T08:29:23;8.03;;;4.40;;
43154;SDS011;34212;51.018;13.586;2024-01-07T08:34:24;6.05;;;3.50;;
43154;SDS011;34212;51.018;13.586;2024-01-07T08:39:26;6.15;;;3.28;;
43154;SDS011;34212;51.018;13.586;2024-01-07T08:44:30;7.82;;;4.93;;
43154;SDS011;34212;51.018;13.586;2024-01-07T08:49:31;4.25;;;3.05;;
43154;SDS011;34212;51.018;13.586;2024-01-07T08:54:40;6.82;;;3.45;;
43154;SDS011;34212;51.018;13.586;2024-01-07T08:59:41;5.32;;;3.42;;
43154;SDS011;34212;51.018;13.586;2024-01-07T09:04:46;4.80;;;3.15;;
43154;SDS011;34212;51.018;13.586;2024-01-07T09:09:48;4.78;;;3.40;;
43154;SDS011;34212;51.018;13.586;2024-01-07T09:14:49;9.77;;;5.75;;
43154;SDS011;34212;51.018;13.586;2024-01-07T09:19:51;4.68;;;3.05;;
43154;SDS011;34212;51.018;13.586;2024-01-07T09:24:52;7.32;;;3.88;;
43154;SDS011;34212;51.018;13.586;2024-01-07T09:29:54;6.45;;;4.38;;
43154;SDS011;34212;51.018;13.586;2024-01-07T09:34:56;6.47;;;4.10;;
43154;SDS011;34212;51.018;13.586;2024-01-07T09:39:59;8.07;;;4.53;;
43154;SDS011;34212;51.018;13.586;2024-01-07T09:45:09;6.30;;;3.90;;
43154;SDS011;34212;51.018;13.586;2024-01-07T09:50:21;6.20;;;3.55;;
43154;SDS011;34212;51.018;13.586;2024-01-07T10:00:37;5.03;;;3.10;;
43154;SDS011;34212;51.018;13.586;2024-01-07T10:05:56;5.38;;;3.95;;
43154;SDS011;34212;51.018;13.586;2024-01-07T10:11:03;5.68;;;3.47;;
43154;SDS011;34212;51.018;13.586;2024-01-07T10:16:07;4.50;;;3.20;;
43154;SDS011;34212;51.018;13.586;2024-01-07T10:21:34;4.97;;;3.22;;
43154;SDS011;34212;51.018;13.586;2024-01-07T10:26:37;5.15;;;3.55;;
43154;SDS011;34212;51.018;13.586;2024-01-07T10:31:45;3.83;;;3.25;;
43154;SDS011;34212;51.018;13.586;2024-01-07T10:36:47;4.40;;;2.90;;
43154;SDS011;34212;51.018;13.586;2024-01-07T10:41:49;5.38;;;3.20;;
43154;SDS011;34212;51.018;13.586;2024-01-07T10:46:53;6.10;;;3.17;;
43154;SDS011;34212;51.018;13.586;2024-01-07T10:52:03;3.70;;;2.80;;
43154;SDS011;34212;51.018;13.586;2024-01-07T10:57:09;7.50;;;3.70;;
43154;SDS011;34212;51.018;13.586;2024-01-07T11:02:40;7.55;;;3.17;;
43154;SDS011;34212;51.018;13.586;2024-01-07T11:08:25;3.95;;;2.65;;
43154;SDS011;34212;51.018;13.586;2024-01-07T11:13:34;6.32;;;3.40;;
43154;SDS011;34212;51.018;13.586;2024-01-07T11:18:40;5.43;;;3.47;;
43154;SDS011;34212;51.018;13.586;2024-01-07T11:23:47;5.40;;;3.03;;
43154;SDS011;34212;51.018;13.586;2024-01-07T11:28:53;5.82;;;3.20;;
43154;SDS011;34212;51.018;13.586;2024-01-07T11:34:03;4.72;;;3.00;;
43154;SDS011;34212;51.018;13.586;2024-01-07T11:39:05;4.75;;;3.28;;
43154;SDS011;34212;51.018;13.586;2024-01-07T11:44:16;4.15;;;2.72;;
43154;SDS011;34212;51.018;13.586;2024-01-07T11:49:20;4.47;;;3.03;;
43154;SDS011;34212;51.018;13.586;2024-01-07T11:54:28;4.25;;;2.33;;
43154;SDS011;34212;51.018;13.586;2024-01-07T11:59:44;3.30;;;2.38;;
43154;SDS011;34212;51.018;13.586;2024-01-07T12:05:27;5.87;;;2.90;;
43154;SDS011;34212;51.018;13.586;2024-01-07T12:11:02;4.47;;;2.75;;
43154;SDS011;34212;51.018;13.586;2024-01-07T12:16:06;4.72;;;2.78;;
43154;SDS011;34212;51.018;13.586;2024-01-07T12:21:10;4.60;;;2.78;;
43154;SDS011;34212;51.018;13.586;2024-01-07T12:26:12;5.20;;;2.70;;
43154;SDS011;34212;51.018;13.586;2024-01-07T12:31:13;4.30;;;2.80;;
43154;SDS011;34212;51.018;13.586;2024-01-07T12:36:20;3.78;;;2.90;;
43154;SDS011;34212;51.018;13.586;2024-01-07T12:41:47;4.43;;;2.90;;
43154;SDS011;34212;51.018;13.586;2024-01-07T12:46:48;4.65;;;2.85;;
43154;SDS011;34212;51.018;13.586;2024-01-07T12:51:55;4.25;;;3.17;;
43154;SDS011;34212;51.018;13.586;2024-01-07T12:56:57;4.40;;;2.78;;
43154;SDS011;34212;51.018;13.586;2024-01-07T13:01:58;3.22;;;2.47;;
43154;SDS011;34212;51.018;13.586;2024-01-07T13:07:00;8.32;;;4.38;;
43154;SDS011;34212;51.018;13.586;2024-01-07T13:12:05;3.30;;;2.33;;
43154;SDS011;34212;51.018;13.586;2024-01-07T13:17:06;3.75;;;2.55;;
43154;SDS011;34212;51.018;13.586;2024-01-07T13:22:09;4.70;;;2.28;;
43154;SDS011;34212;51.018;13.586;2024-01-07T13:27:11;4.37;;;2.60;;
43154;SDS011;34212;51.018;13.586;2024-01-07T13:32:14;6.20;;;3.20;;
43154;SDS011;34212;51.018;13.586;2024-01-07T13:37:20;4.05;;;2.17;;
43154;SDS011;34212;51.018;13.586;2024-01-07T13:42:21;13.10;;;2.92;;
43154;SDS011;34212;51.018;13.586;2024-01-07T13:47:23;4.60;;;3.47;;
43154;SDS011;34212;51.018;13.586;2024-01-07T13:52:24;3.88;;;2.67;;
43154;SDS011;34212;51.018;13.586;2024-01-07T13:57:26;6.18;;;4.85;;
43154;SDS011;34212;51.018;13.586;2024-01-07T14:02:28;3.88;;;2.72;;
43154;SDS011;34212;51.018;13.586;2024-01-07T14:07:30;3.15;;;2.05;;
43154;SDS011;34212;51.018;13.586;2024-01-07T14:12:31;3.38;;;2.15;;
43154;SDS011;34212;51.018;13.586;2024-01-07T14:17:33;7.20;;;2.70;;
43154;SDS011;34212;51.018;13.586;2024-01-07T14:22:35;6.70;;;2.47;;
43154;SDS011;34212;51.018;13.586;2024-01-07T14:27:36;4.53;;;3.13;;
43154;SDS011;34212;51.018;13.586;2024-01-07T14:32:39;3.47;;;2.22;;
43154;SDS011;34212;51.018;13.586;2024-01-07T14:37:41;4.32;;;2.58;;
43154;SDS011;34212;51.018;13.586;2024-01-07T14:42:42;6.18;;;3.65;;
43154;SDS011;34212;51.018;13.586;2024-01-07T14:47:45;4.40;;;2.70;;
43154;SDS011;34212;51.018;13.586;2024-01-07T14:52:46;4.00;;;3.28;;
43154;SDS011;34212;51.018;13.586;2024-01-07T14:57:48;3.03;;;2.35;;
43154;SDS011;34212;51.018;13.586;2024-01-07T15:02:50;3.85;;;2.67;;
43154;SDS011;34212;51.018;13.586;2024-01-07T15:07:52;3.65;;;2.85;;
43154;SDS011;34212;51.018;13.586;2024-01-07T15:12:53;5.68;;;3.40;;
43154;SDS011;34212;51.018;13.586;2024-01-07T15:18:07;5.57;;;3.33;;
43154;SDS011;34212;51.018;13.586;2024-01-07T15:23:08;4.03;;;2.70;;
43154;SDS011;34212;51.018;13.586;2024-01-07T15:28:10;4.72;;;2.75;;
43154;SDS011;34212;51.018;13.586;2024-01-07T15:33:13;6.15;;;4.03;;
43154;SDS011;34212;51.018;13.586;2024-01-07T15:38:15;5.13;;;3.40;;
43154;SDS011;34212;51.018;13.586;2024-01-07T15:43:17;3.40;;;2.70;;
43154;SDS011;34212;51.018;13.586;2024-01-07T15:48:19;5.82;;;2.97;;
43154;SDS011;34212;51.018;13.586;2024-01-07T15:53:21;6.43;;;3.15;;
43154;SDS011;34212;51.018;13.586;2024-01-07T15:58:24;3.70;;;2.72;;
43154;SDS011;34212;51.018;13.586;2024-01-07T16:09:30;4.75;;;2.53;;
43154;SDS011;34212;51.018;13.586;2024-01-07T16:15:55;5.38;;;3.25;;
43154;SDS011;34212;51.018;13.586;2024-01-07T16:21:46;4.22;;;2.67;;
43154;SDS011;34212;51.018;13.586;2024-01-07T16:27:37;4.55;;;2.83;;
43154;SDS011;34212;51.018;13.586;2024-01-07T16:33:31;4.63;;;3.25;;
43154;SDS011;34212;51.018;13.586;2024-01-07T16:45:50;4.53;;;3.42;;
43154;SDS011;34212;51.018;13.586;2024-01-07T16:52:12;4.05;;;3.00;;
43154;SDS011;34212;51.018;13.586;2024-01-07T17:06:18;4.78;;;3.13;;
43154;SDS011;34212;51.018;13.586;2024-01-07T17:20:23;3.88;;;3.10;;
43154;SDS011;34212;51.018;13.586;2024-01-07T17:34:57;4.57;;;3.33;;
43154;SDS011;34212;51.018;13.586;2024-01-07T17:42:10;5.20;;;3.63;;
43154;SDS011;34212;51.018;13.586;2024-01-07T21:50:52;7.22;;;4.28;;
43154;SDS011;34212;51.018;13.586;2024-01-07T21:55:54;5.30;;;3.83;;
43154;SDS011;34212;51.018;13.586;2024-01-07T22:00:55;6.65;;;4.47;;
43154;SDS011;34212;51.018;13.586;2024-01-07T22:05:57;7.70;;;4.38;;
43154;SDS011;34212;51.018;13.586;2024-01-07T22:10:59;6.70;;;4.00;;
43154;SDS011;34212;51.018;13.586;2024-01-07T22:16:00;5.07;;;3.30;;
43154;SDS011;34212;51.018;13.586;2024-01-07T22:21:02;4.60;;;3.13;;
43154;SDS011;34212;51.018;13.586;2024-01-07T22:26:03;5.55;;;3.30;;
43154;SDS011;34212;51.018;13.586;2024-01-07T22:31:05;3.95;;;2.92;;
43154;SDS011;34212;51.018;13.586;2024-01-07T22:36:07;6.55;;;3.10;;
43154;SDS011;34212;51.018;13.586;2024-01-07T22:41:09;4.83;;;3.30;;
43154;SDS011;34212;51.018;13.586;2024-01-07T22:46:10;4.00;;;2.70;;
43154;SDS011;34212;51.018;13.586;2024-01-07T22:51:14;4.03;;;2.72;;
43154;SDS011;34212;51.018;13.586;2024-01-07T22:56:16;4.78;;;3.05;;
43154;SDS011;34212;51.018;13.586;2024-01-07T23:01:28;3.88;;;2.40;;
43154;SDS011;34212;51.018;13.586;2024-01-07T23:06:29;4.03;;;2.95;;
43154;SDS011;34212;51.018;13.586;2024-01-07T23:11:31;5.00;;;3.00;;
43154;SDS011;34212;51.018;13.586;2024-01-07T23:16:34;5.23;;;3.00;;
43154;SDS011;34212;51.018;13.586;2024-01-07T23:21:35;5.28;;;2.88;;
43154;SDS011;34212;51.018;13.586;2024-01-07T23:26:37;4.90;;;3.03;;
43154;SDS011;34212;51.018;13.586;2024-01-07T23:31:38;7.32;;;3.10;;
43154;SDS011;34212;51.018;13.586;2024-01-07T23:36:40;6.18;;;3.35;;
43154;SDS011;34212;51.018;13.586;2024-01-07T23:41:42;4.85;;;3.40;;
43154;SDS011;34212;51.018;13.586;2024-01-07T23:46:44;4.55;;;3.17;;
43154;SDS011;34212;51.018;13.586;2024-01-07T23:51:45;5.68;;;3.60;;
43154;SDS011;34212;51.018;13.586;2024-01-07T23:56:47;5.97;;;3.08;;
